Time;durP1;ratioP1;P1;durP2;ratioP2;P2;SDS_P1;SDS_P2;PMS_P1;PMS_P2;Temp;Humidity;BMP_temperature;BMP_pressure;BME280_temperature;BME280_humidity;BME280_pressure;Samples;Min_cycle;Max_cycle;Signal;HPM_P1;HPM_P2
2022/01/11 00:00:31;;;;;;;12.03;10.83;;;;;;;2.77;96.75;92133.00;5010887;28;20205;-82
2022/01/11 00:02:57;;;;;;;10.53;9.87;;;;;;;2.70;95.78;92127.25;5026210;28;20192;-82
2022/01/11 00:05:32;;;;;;;9.83;9.27;;;;;;;2.71;97.23;92131.38;5007264;28;20206;-82
2022/01/11 00:07:57;;;;;;;10.87;10.27;;;;;;;2.83;95.40;92137.94;5009387;28;20195;-82
2022/01/11 00:11:02;;;;;;;9.60;9.10;;;;;;;2.89;94.95;92144.72;5011485;28;20214;-82
2022/01/11 00:13:17;;;;;;;9.17;8.67;;;;;;;2.74;95.54;92107.72;5009845;28;20254;-82
2022/01/11 00:15:43;;;;;;;11.03;10.33;;;;;;;2.99;94.34;92159.50;5011309;28;20282;-84
2022/01/11 00:18:08;;;;;;;10.40;9.67;;;;;;;2.92;94.05;92143.44;5011480;28;21631;-82
2022/01/11 00:20:36;;;;;;;10.93;10.23;;;;;;;2.74;93.13;92113.63;5011585;28;20255;-82
2022/01/11 00:25:30;;;;;;;9.93;9.33;;;;;;;2.87;93.34;92162.22;5011728;28;20196;-82
2022/01/11 00:27:56;;;;;;;10.83;10.13;;;;;;;2.79;93.27;92169.59;5011183;28;20190;-83
2022/01/11 00:30:23;;;;;;;11.43;10.63;;;;;;;2.69;93.17;92159.19;5010094;28;20199;-80
2022/01/11 00:32:53;;;;;;;10.33;9.73;;;;;;;2.46;94.94;92162.81;5011486;28;20255;-82
2022/01/11 00:35:22;;;;;;;8.77;8.40;;;;;;;2.14;96.16;92133.59;5010728;28;20215;-82
2022/01/11 00:37:49;;;;;;;10.47;9.87;;;;;;;2.34;95.83;92128.66;5010990;28;20210;-82
2022/01/11 00:40:15;;;;;;;10.17;9.57;;;;;;;2.36;96.85;92149.03;5008741;28;20249;-83
2022/01/11 00:42:40;;;;;;;10.67;10.13;;;;;;;2.58;97.60;92153.16;5010620;28;20578;-82
2022/01/11 00:45:10;;;;;;;10.53;9.83;;;;;;;2.62;96.17;92168.91;5011738;28;20179;-82
2022/01/11 00:47:36;;;;;;;10.50;9.80;;;;;;;2.82;95.45;92158.81;5009865;28;20234;-82
2022/01/11 00:50:04;;;;;;;10.53;9.73;;;;;;;2.93;93.44;92150.16;5010788;28;20187;-80
2022/01/11 00:52:29;;;;;;;10.23;9.47;;;;;;;2.92;93.29;92153.75;5010344;28;20292;-81
2022/01/11 00:54:55;;;;;;;11.63;10.83;;;;;;;2.86;92.50;92145.19;5010329;28;20219;-82
2022/01/11 00:57:21;;;;;;;43.03;13.27;;;;;;;2.89;93.20;92172.28;5010272;28;20254;-82
2022/01/11 00:59:47;;;;;;;105.93;15.47;;;;;;;2.56;93.40;92180.97;5010259;28;20187;-81
2022/01/11 01:02:12;;;;;;;127.73;17.30;;;;;;;2.47;95.19;92192.72;5009760;28;20837;-81
2022/01/11 01:04:38;;;;;;;525.07;33.33;;;;;;;2.34;94.59;92166.50;5010834;28;20199;-82
2022/01/11 01:07:04;;;;;;;234.47;22.13;;;;;;;2.23;95.03;92172.56;5008820;28;20223;-82
2022/01/11 01:09:37;;;;;;;209.33;17.83;;;;;;;2.42;95.70;92207.31;5009833;28;20199;-82
2022/01/11 01:12:03;;;;;;;406.53;25.37;;;;;;;2.33;95.82;92196.66;5010281;28;20289;-81
2022/01/11 01:14:29;;;;;;;364.53;25.50;;;;;;;2.33;94.58;92175.25;5010250;28;20224;-81
2022/01/11 01:16:54;;;;;;;265.13;21.37;;;;;;;2.36;94.55;92173.00;5009222;28;20220;-81
2022/01/11 01:19:21;;;;;;;174.87;16.57;;;;;;;2.41;94.49;92214.25;5010952;28;20200;-81
2022/01/11 01:21:48;;;;;;;137.90;18.17;;;;;;;1.96;96.57;92215.47;5007248;28;20223;-82
2022/01/11 01:24:13;;;;;;;124.70;17.67;;;;;;;2.35;95.20;92217.78;5010518;28;20360;-82
2022/01/11 01:26:39;;;;;;;58.90;15.07;;;;;;;2.46;93.86;92216.13;5009635;28;20216;-82
2022/01/11 01:29:05;;;;;;;62.73;17.13;;;;;;;2.54;93.13;92218.28;5010803;28;20226;-81
2022/01/11 01:31:30;;;;;;;154.30;17.70;;;;;;;2.55;92.69;92220.59;5024704;28;20227;-81
2022/01/11 01:33:56;;;;;;;134.23;16.67;;;;;;;2.44;92.93;92207.84;5009298;28;20192;-82
2022/01/11 01:36:23;;;;;;;26.20;12.33;;;;;;;2.40;93.93;92235.88;5008731;28;20250;-81
2022/01/11 01:38:49;;;;;;;112.00;14.97;;;;;;;2.53;94.18;92238.13;5024497;28;20235;-82
2022/01/11 01:41:17;;;;;;;28.13;12.53;;;;;;;2.32;94.59;92228.56;5007593;28;20314;-80
2022/01/11 01:43:45;;;;;;;150.93;15.50;;;;;;;2.40;93.79;92237.66;5024740;28;20217;-82
2022/01/11 01:46:11;;;;;;;124.90;13.67;;;;;;;2.45;93.26;92214.56;5009335;28;20254;-81
2022/01/11 01:48:37;;;;;;;17.73;9.77;;;;;;;2.28;94.28;92221.53;5009334;28;20211;-81
2022/01/11 01:51:06;;;;;;;72.77;12.90;;;;;;;2.46;93.33;92226.44;5009002;28;20219;-81
2022/01/11 01:53:33;;;;;;;55.20;11.43;;;;;;;2.20;92.18;92201.34;5025052;28;20195;-80
2022/01/11 01:55:59;;;;;;;9.97;9.37;;;;;;;2.30;93.61;92215.16;5009055;28;20227;-81
2022/01/11 01:58:25;;;;;;;11.00;10.40;;;;;;;2.41;92.46;92228.94;5010816;28;20246;-81
2022/01/11 02:01:01;;;;;;;11.27;10.67;;;;;;;2.46;92.38;92234.16;5008622;28;20242;-80
2022/01/11 02:03:27;;;;;;;11.87;11.17;;;;;;;2.24;92.62;92217.91;5008496;28;20239;-80
2022/01/11 02:05:55;;;;;;;12.53;11.67;;;;;;;2.18;91.52;92247.94;5009511;28;20764;-80
2022/01/11 02:08:21;;;;;;;12.00;11.20;;;;;;;2.04;93.06;92248.53;5025471;28;20206;-81
2022/01/11 02:10:46;;;;;;;11.70;10.80;;;;;;;2.01;92.44;92233.56;5006540;28;20219;-82
2022/01/11 02:13:11;;;;;;;10.40;9.90;;;;;;;1.94;92.63;92220.84;5009269;28;20191;-81
2022/01/11 02:15:37;;;;;;;12.37;11.20;;;;;;;1.85;92.56;92229.19;5024270;28;20257;-81
2022/01/11 02:18:11;;;;;;;11.30;10.70;;;;;;;1.86;92.66;92246.19;5009763;28;20218;-81
2022/01/11 02:20:43;;;;;;;9.33;8.83;;;;;;;1.84;92.80;92248.22;5008114;28;20219;-80
2022/01/11 02:23:09;;;;;;;10.33;9.77;;;;;;;1.45;93.15;92247.31;5008087;28;20218;-81
2022/01/11 02:25:35;;;;;;;10.70;10.13;;;;;;;1.50;94.84;92253.34;5009258;28;20222;-81
2022/01/11 02:28:01;;;;;;;10.47;9.77;;;;;;;2.04;92.69;92253.66;5009672;28;20207;-82
2022/01/11 02:30:31;;;;;;;12.97;11.77;;;;;;;1.89;91.15;92259.34;5008603;28;20195;-81
2022/01/11 02:32:57;;;;;;;11.00;10.20;;;;;;;1.93;93.53;92259.69;5008329;28;20229;-81
2022/01/11 02:35:22;;;;;;;9.93;9.33;;;;;;;1.66;90.65;92236.38;5007536;28;20238;-81
2022/01/11 02:37:47;;;;;;;9.97;9.47;;;;;;;1.68;90.42;92229.97;5008289;28;20250;-82
2022/01/11 02:40:14;;;;;;;9.83;9.33;;;;;;;2.05;89.53;92263.72;5007589;28;20363;-79
2022/01/11 02:42:40;;;;;;;10.33;9.83;;;;;;;1.86;90.89;92261.63;5008661;28;20207;-80
2022/01/11 02:45:18;;;;;;;10.60;10.10;;;;;;;1.79;91.68;92255.84;5008423;28;20195;-80
2022/01/11 02:47:45;;;;;;;9.73;9.23;;;;;;;1.86;91.49;92266.75;5009107;28;21057;-80
2022/01/11 02:50:11;;;;;;;9.73;9.33;;;;;;;1.89;90.74;92263.72;5008819;28;20203;-80
2022/01/11 02:52:36;;;;;;;10.37;9.97;;;;;;;1.85;90.96;92267.78;5009262;28;20227;-80
2022/01/11 02:55:06;;;;;;;9.90;9.40;;;;;;;1.58;91.27;92245.25;5012774;28;20211;-81
2022/01/11 02:57:32;;;;;;;8.57;8.17;;;;;;;1.64;91.19;92264.91;5013394;28;20238;-80
2022/01/11 02:59:59;;;;;;;10.50;10.03;;;;;;;1.61;91.17;92283.38;5013350;28;20188;-81
2022/01/11 03:02:24;;;;;;;10.20;9.70;;;;;;;1.28;92.78;92234.47;5011220;28;20219;-78
2022/01/11 03:04:50;;;;;;;9.97;9.57;;;;;;;1.65;91.73;92281.88;5013298;28;20206;-79
2022/01/11 03:07:22;;;;;;;9.20;8.80;;;;;;;1.77;91.76;92286.97;5010557;28;20390;-77
2022/01/11 03:10:31;;;;;;;9.20;8.80;;;;;;;1.64;91.41;92275.19;5011879;28;20254;-77
2022/01/11 03:12:40;;;;;;;9.03;8.53;;;;;;;1.33;91.99;92283.41;5011313;28;20218;-76
2022/01/11 03:15:08;;;;;;;10.67;10.17;;;;;;;1.44;92.65;92292.06;5012356;28;20234;-76
2022/01/11 03:17:33;;;;;;;9.83;9.43;;;;;;;1.47;92.72;92278.75;5012265;28;20234;-77
2022/01/11 03:19:59;;;;;;;9.80;9.40;;;;;;;1.45;91.78;92270.47;5011213;28;20191;-76
2022/01/11 03:22:24;;;;;;;9.73;9.17;;;;;;;1.16;91.05;92276.66;5011615;28;20257;-77
2022/01/11 03:24:49;;;;;;;9.67;9.23;;;;;;;1.32;90.20;92294.69;5012281;28;20195;-76
2022/01/11 03:27:15;;;;;;;9.07;8.67;;;;;;;1.63;90.02;92299.34;5012602;28;20238;-76
2022/01/11 03:29:40;;;;;;;9.50;8.97;;;;;;;1.12;89.33;92260.16;5011948;28;20195;-77
2022/01/11 03:32:08;;;;;;;8.80;8.40;;;;;;;1.33;89.57;92301.41;5010592;28;20298;-77
2022/01/11 03:34:34;;;;;;;8.87;8.47;;;;;;;1.47;89.82;92299.31;5011696;28;20210;-77
2022/01/11 03:37:00;;;;;;;8.30;8.00;;;;;;;1.15;89.12;92300.81;5011761;28;20227;-76
2022/01/11 03:39:27;;;;;;;8.17;7.87;;;;;;;1.24;91.25;92289.16;5012155;28;20223;-76
2022/01/11 03:41:52;;;;;;;9.70;9.30;;;;;;;1.09;90.54;92288.88;5011631;28;20298;-76
2022/01/11 03:44:18;;;;;;;9.37;9.03;;;;;;;1.48;90.10;92290.56;5012722;28;20195;-77
2022/01/11 03:46:43;;;;;;;9.03;8.73;;;;;;;1.03;88.85;92241.72;5011921;28;20234;-77
2022/01/11 03:49:09;;;;;;;10.13;9.73;;;;;;;0.97;88.19;92273.47;5012545;28;20190;-77
2022/01/11 03:51:38;;;;;;;9.07;8.77;;;;;;;1.28;89.32;92298.72;5012877;28;20223;-76
2022/01/11 03:54:16;;;;;;;8.93;8.63;;;;;;;1.32;90.41;92302.38;5011029;28;20210;-76
2022/01/11 03:56:41;;;;;;;9.13;8.73;;;;;;;1.52;88.34;92310.50;5011623;28;20235;-77
2022/01/11 03:59:07;;;;;;;9.80;9.37;;;;;;;1.38;89.79;92309.22;5012763;28;20191;-76
2022/01/11 04:01:34;;;;;;;9.47;9.03;;;;;;;1.51;89.38;92313.25;5010897;28;20607;-77
2022/01/11 04:04:00;;;;;;;9.63;9.13;;;;;;;1.39;88.33;92312.53;5012013;28;20208;-76
2022/01/11 04:06:27;;;;;;;9.00;8.50;;;;;;;1.41;88.88;92316.47;5011085;28;20243;-77
2022/01/11 04:08:52;;;;;;;9.77;9.37;;;;;;;1.32;89.36;92312.69;5011192;28;20231;-77
2022/01/11 04:11:18;;;;;;;8.30;7.93;;;;;;;1.29;88.45;92328.56;5011303;28;20227;-77
2022/01/11 04:13:44;;;;;;;8.97;8.63;;;;;;;1.22;87.86;92325.34;5010846;28;20219;-77
2022/01/11 04:16:10;;;;;;;10.00;9.60;;;;;;;0.98;89.98;92305.88;5009173;28;20324;-77
2022/01/11 04:18:35;;;;;;;9.50;9.10;;;;;;;1.33;89.70;92329.69;5012434;28;20219;-76
2022/01/11 04:21:02;;;;;;;9.63;9.23;;;;;;;1.20;89.94;92316.31;5010802;28;20252;-77
2022/01/11 04:23:27;;;;;;;9.60;9.17;;;;;;;1.37;88.13;92335.16;5011135;28;20191;-76
2022/01/11 04:25:53;;;;;;;10.03;9.63;;;;;;;1.28;86.99;92339.06;5011275;28;20295;-76
2022/01/11 04:28:19;;;;;;;10.10;9.50;;;;;;;1.26;88.70;92353.97;5010915;28;20255;-76
2022/01/11 04:30:45;;;;;;;10.20;9.57;;;;;;;1.30;88.48;92358.44;5010416;28;20246;-76
2022/01/11 04:33:12;;;;;;;9.50;8.90;;;;;;;1.18;88.00;92365.38;5009381;28;20183;-82
2022/01/11 04:35:38;;;;;;;10.17;9.67;;;;;;;1.03;87.86;92339.38;5008730;28;20261;-88
2022/01/11 04:38:03;;;;;;;10.63;10.13;;;;;;;1.31;88.66;92365.13;5010345;28;20630;-82
2022/01/11 04:40:29;;;;;;;11.37;10.70;;;;;;;1.25;88.47;92348.03;5005555;28;20199;-83
2022/01/11 04:42:54;;;;;;;10.77;10.07;;;;;;;1.16;87.31;92354.56;5008815;28;20191;-83
2022/01/11 04:45:20;;;;;;;11.17;10.47;;;;;;;1.14;89.16;92374.56;5009915;28;21211;-84
2022/01/11 04:47:47;;;;;;;10.50;10.00;;;;;;;1.01;87.51;92359.38;5009257;28;20627;-84
2022/01/11 04:50:13;;;;;;;10.73;10.23;;;;;;;1.22;87.13;92366.50;5008814;28;20231;-76
2022/01/11 04:52:38;;;;;;;10.40;9.90;;;;;;;1.02;87.37;92342.97;5007276;28;20203;-81
2022/01/11 04:55:06;;;;;;;10.90;10.10;;;;;;;0.91;86.16;92356.63;5007666;28;20226;-79
2022/01/11 04:57:32;;;;;;;10.60;10.10;;;;;;;0.76;87.68;92391.50;5005551;28;20275;-81
2022/01/11 04:59:57;;;;;;;10.23;9.63;;;;;;;0.59;88.30;92363.13;5009768;28;21654;-80
2022/01/11 05:02:24;;;;;;;9.23;8.73;;;;;;;0.50;88.61;92351.63;5009057;28;20265;-80
2022/01/11 05:04:50;;;;;;;10.27;9.70;;;;;;;1.09;89.27;92410.44;5010541;28;20191;-85
2022/01/11 05:07:15;;;;;;;9.53;8.93;;;;;;;0.96;90.26;92405.56;5009592;28;20219;-84
2022/01/11 05:09:40;;;;;;;9.53;9.13;;;;;;;0.85;88.37;92406.34;5009076;28;20206;-87
2022/01/11 05:12:07;;;;;;;9.93;9.33;;;;;;;0.68;88.07;92391.81;5009777;28;20218;-84
2022/01/11 05:14:32;;;;;;;8.63;8.33;;;;;;;0.51;84.41;92380.66;5008708;28;20219;-82
2022/01/11 05:16:58;;;;;;;9.70;9.30;;;;;;;0.92;86.10;92404.41;5023964;28;20230;-78
2022/01/11 05:19:23;;;;;;;9.13;8.63;;;;;;;0.89;85.12;92409.22;5008504;28;20213;-77
2022/01/11 05:21:49;;;;;;;9.30;8.80;;;;;;;0.42;86.14;92387.91;5007882;28;20299;-78
2022/01/11 05:24:14;;;;;;;8.93;8.63;;;;;;;0.82;86.18;92419.63;5009101;28;20183;-80
2022/01/11 05:26:40;;;;;;;9.53;9.03;;;;;;;0.76;86.02;92430.03;5022537;28;20220;-77
2022/01/11 05:29:05;;;;;;;9.97;9.47;;;;;;;0.26;86.96;92398.06;5010960;28;20184;-81
2022/01/11 05:31:34;;;;;;;9.03;8.63;;;;;;;0.50;86.19;92425.34;5008530;28;20231;-79
2022/01/11 05:34:00;;;;;;;9.47;9.07;;;;;;;0.80;88.16;92406.22;5010130;28;20211;-80
2022/01/11 05:36:25;;;;;;;9.60;9.03;;;;;;;0.88;86.48;92441.06;5008401;28;20238;-81
2022/01/11 05:38:51;;;;;;;9.23;8.83;;;;;;;1.09;84.60;92440.50;5009928;28;20230;-79
2022/01/11 05:41:16;;;;;;;10.03;9.63;;;;;;;0.96;83.81;92441.53;5010765;28;20227;-80
2022/01/11 05:43:41;;;;;;;10.93;10.43;;;;;;;0.83;84.92;92439.19;5009724;28;20701;-80
2022/01/11 05:46:07;;;;;;;9.20;8.80;;;;;;;0.47;84.22;92352.09;5009938;28;20854;-79
2022/01/11 05:48:32;;;;;;;9.83;9.23;;;;;;;0.83;83.69;92420.41;5010247;28;20198;-80
2022/01/11 05:51:01;;;;;;;9.17;8.67;;;;;;;0.57;83.23;92426.78;5007091;28;20207;-81
2022/01/11 05:53:26;;;;;;;9.20;8.87;;;;;;;0.98;82.95;92444.63;5009481;28;20206;-81
2022/01/11 05:55:52;;;;;;;10.33;9.23;;;;;;;1.09;82.54;92445.66;5007586;28;20974;-80
2022/01/11 05:58:17;;;;;;;9.47;8.87;;;;;;;1.00;84.12;92446.97;5005831;28;20195;-81
2022/01/11 06:00:43;;;;;;;10.10;9.60;;;;;;;1.04;84.21;92436.03;5007471;28;20243;-82
2022/01/11 06:03:08;;;;;;;8.33;8.03;;;;;;;0.93;86.22;92452.25;5005773;28;20206;-79
2022/01/11 06:05:38;;;;;;;10.20;9.70;;;;;;;0.92;85.26;92452.47;5007417;28;20234;-82
2022/01/11 06:08:05;;;;;;;11.03;10.33;;;;;;;0.89;84.25;92435.72;5008452;28;20225;-80
2022/01/11 06:10:30;;;;;;;10.10;9.67;;;;;;;1.13;83.17;92457.81;5006406;28;20194;-80
2022/01/11 06:12:56;;;;;;;9.50;8.53;;;;;;;0.94;84.62;92448.66;5007502;28;20274;-82
2022/01/11 06:15:21;;;;;;;9.50;8.90;;;;;;;0.73;85.40;92431.22;5006051;28;20221;-81
2022/01/11 06:17:48;;;;;;;10.33;9.87;;;;;;;1.06;81.88;92462.28;5006776;28;20214;-82
2022/01/11 06:20:13;;;;;;;10.13;9.33;;;;;;;0.99;83.51;92471.91;5003019;28;20210;-80
2022/01/11 06:22:39;;;;;;;9.20;8.80;;;;;;;0.84;82.40;92460.53;5005444;28;20175;-83
2022/01/11 06:25:06;;;;;;;9.80;9.27;;;;;;;0.93;83.19;92487.44;5006076;28;20187;-82
2022/01/11 06:27:33;;;;;;;8.83;8.43;;;;;;;0.87;85.98;92486.53;5007331;28;20219;-83
2022/01/11 06:29:59;;;;;;;10.17;9.67;;;;;;;0.81;84.28;92474.56;5006010;28;20230;-79
2022/01/11 06:32:24;;;;;;;9.90;9.40;;;;;;;0.58;83.30;92443.75;5005066;28;20215;-81
2022/01/11 06:34:52;;;;;;;10.23;9.47;;;;;;;0.57;82.08;92438.84;5008787;28;20250;-86
2022/01/11 06:37:17;;;;;;;10.37;9.67;;;;;;;0.67;85.65;92462.97;5006537;28;20327;-76
2022/01/11 06:39:43;;;;;;;9.77;9.27;;;;;;;0.89;83.67;92492.22;5006304;28;20226;-79
2022/01/11 06:42:08;;;;;;;10.20;9.60;;;;;;;0.52;83.12;92462.63;5006883;28;20235;-79
2022/01/11 06:44:34;;;;;;;8.90;8.50;;;;;;;0.95;85.83;92500.84;5007234;28;20184;-79
2022/01/11 06:46:59;;;;;;;10.93;10.37;;;;;;;1.07;83.02;92481.06;5006782;28;20226;-79
2022/01/11 06:49:25;;;;;;;10.73;9.87;;;;;;;1.08;85.21;92501.41;5006818;28;20196;-79
2022/01/11 06:51:50;;;;;;;8.30;8.00;;;;;;;0.96;81.00;92507.56;5006025;28;20234;-81
2022/01/11 06:54:16;;;;;;;9.70;9.03;;;;;;;1.00;82.67;92506.88;5007977;28;20191;-79
2022/01/11 06:56:41;;;;;;;10.17;9.60;;;;;;;1.02;82.25;92492.03;5004799;28;20242;-79
2022/01/11 06:59:07;;;;;;;9.27;8.57;;;;;;;1.22;83.88;92518.16;5006893;28;20187;-80
2022/01/11 07:01:32;;;;;;;9.10;8.60;;;;;;;0.88;84.54;92500.97;5008493;28;20230;-80
2022/01/11 07:03:58;;;;;;;9.83;9.33;;;;;;;0.82;84.71;92517.25;5008021;28;20211;-80
2022/01/11 07:06:23;;;;;;;10.83;10.13;;;;;;;0.86;83.34;92510.66;5006913;28;20237;-85
2022/01/11 07:08:49;;;;;;;10.03;9.57;;;;;;;1.01;83.56;92539.28;5006694;28;20188;-81
2022/01/11 07:11:14;;;;;;;11.70;11.00;;;;;;;0.83;84.15;92536.81;5007021;28;20223;-80
2022/01/11 07:13:40;;;;;;;9.20;8.80;;;;;;;0.69;83.96;92521.81;5005963;28;20210;-82
2022/01/11 07:16:05;;;;;;;8.80;8.40;;;;;;;0.87;86.02;92534.59;5006625;28;20283;-76
2022/01/11 07:18:31;;;;;;;10.30;9.70;;;;;;;0.74;84.80;92522.72;5006382;28;20207;-80
2022/01/11 07:20:56;;;;;;;10.77;10.17;;;;;;;0.78;83.31;92530.78;5008313;28;20226;-80
2022/01/11 07:23:22;;;;;;;9.67;9.17;;;;;;;1.03;81.24;92541.63;5008189;28;20199;-80
2022/01/11 07:25:47;;;;;;;9.10;8.70;;;;;;;1.03;81.88;92552.69;5006345;28;20227;-80
2022/01/11 07:28:15;;;;;;;9.20;8.70;;;;;;;0.85;81.91;92549.44;5007431;28;20246;-80
2022/01/11 07:30:41;;;;;;;9.10;8.27;;;;;;;0.71;84.93;92546.28;5007877;28;20286;-79
2022/01/11 07:33:07;;;;;;;9.27;8.77;;;;;;;1.00;83.27;92576.25;5007443;28;20265;-78
2022/01/11 07:35:32;;;;;;;9.43;8.90;;;;;;;0.73;80.72;92559.66;5007951;28;20231;-81
2022/01/11 07:37:58;;;;;;;10.20;9.67;;;;;;;0.95;79.72;92576.13;5005289;28;20266;-80
2022/01/11 07:40:23;;;;;;;9.50;9.00;;;;;;;0.91;80.25;92582.75;5009021;28;20238;-80
2022/01/11 07:42:49;;;;;;;9.97;9.57;;;;;;;0.75;83.35;92574.88;5011942;28;20195;-80
2022/01/11 07:45:15;;;;;;;9.13;8.50;;;;;;;1.01;81.95;92575.25;5011237;28;20300;-81
2022/01/11 07:47:40;;;;;;;9.50;9.10;;;;;;;0.60;81.63;92575.28;5028503;28;20195;-81
2022/01/11 07:50:06;;;;;;;10.30;9.80;;;;;;;0.56;81.57;92579.28;5011780;28;20183;-80
2022/01/11 07:52:33;;;;;;;10.23;9.47;;;;;;;0.63;81.38;92563.78;5011575;28;20617;-79
2022/01/11 07:54:58;;;;;;;11.13;10.53;;;;;;;0.76;81.15;92566.97;5010999;28;20214;-82
2022/01/11 07:57:24;;;;;;;11.33;10.63;;;;;;;0.78;82.39;92584.72;5007458;28;20223;-82
2022/01/11 07:59:50;;;;;;;10.43;9.70;;;;;;;0.88;81.43;92603.72;5011932;28;20182;-81
2022/01/11 08:02:17;;;;;;;8.93;8.50;;;;;;;0.98;81.35;92587.78;5008802;28;20255;-80
2022/01/11 08:04:42;;;;;;;9.43;8.93;;;;;;;0.86;80.07;92590.31;5011737;28;20246;-80
2022/01/11 08:07:10;;;;;;;9.20;8.83;;;;;;;1.18;81.43;92596.72;5011504;28;20223;-81
2022/01/11 08:09:35;;;;;;;9.17;8.67;;;;;;;0.84;81.04;92597.44;5024663;28;20218;-82
2022/01/11 08:12:01;;;;;;;9.63;8.83;;;;;;;0.72;83.11;92614.63;5011258;28;20212;-83
2022/01/11 08:14:26;;;;;;;10.00;9.40;;;;;;;0.53;82.60;92584.09;5010296;28;20186;-80
2022/01/11 08:16:52;;;;;;;10.03;9.23;;;;;;;0.70;84.03;92601.22;5011770;28;20223;-81
2022/01/11 08:19:24;;;;;;;12.20;11.30;;;;;;;0.78;81.51;92606.03;5011084;28;20247;-81
2022/01/11 08:21:51;;;;;;;9.23;8.80;;;;;;;0.53;81.83;92610.53;5011496;28;20223;-80
2022/01/11 08:24:16;;;;;;;9.00;8.60;;;;;;;0.88;80.61;92611.44;5010099;28;20192;-81
2022/01/11 08:26:41;;;;;;;11.53;10.60;;;;;;;0.78;82.58;92618.13;5010891;28;20361;-81
2022/01/11 08:29:07;;;;;;;12.27;11.47;;;;;;;0.15;82.71;92561.28;5011367;28;20199;-79
2022/01/11 08:31:32;;;;;;;11.77;10.87;;;;;;;0.92;81.57;92622.84;5012472;28;20307;-80
2022/01/11 08:33:58;;;;;;;24.43;18.73;;;;;;;0.95;82.12;92622.41;5010366;28;20195;-80
2022/01/11 08:36:23;;;;;;;12.83;11.87;;;;;;;0.73;82.33;92618.00;5010440;28;20240;-81
2022/01/11 08:38:48;;;;;;;10.37;9.77;;;;;;;0.80;81.33;92631.50;5011511;28;20219;-80
2022/01/11 08:41:14;;;;;;;11.13;10.33;;;;;;;0.42;83.39;92636.19;5012240;28;20231;-81
2022/01/11 08:43:39;;;;;;;12.10;11.37;;;;;;;0.52;82.74;92582.50;5010036;28;20203;-80
2022/01/11 08:46:05;;;;;;;15.70;14.40;;;;;;;0.76;83.88;92636.31;5009745;28;20231;-80
2022/01/11 08:48:31;;;;;;;9.87;9.40;;;;;;;0.79;82.55;92651.31;5009668;28;20214;-79
2022/01/11 08:50:57;;;;;;;11.13;10.43;;;;;;;0.82;83.72;92648.28;5010275;28;20275;-81
2022/01/11 08:53:23;;;;;;;13.00;11.80;;;;;;;1.05;82.72;92656.06;5010331;28;20200;-80
2022/01/11 08:55:49;;;;;;;12.20;11.20;;;;;;;1.06;82.25;92656.88;5009932;28;20235;-81
2022/01/11 08:58:16;;;;;;;12.10;11.33;;;;;;;0.92;81.89;92661.38;5006893;28;20196;-80
2022/01/11 09:00:42;;;;;;;10.20;9.63;;;;;;;0.46;82.53;92640.66;5010816;28;20250;-80
2022/01/11 09:03:07;;;;;;;12.20;11.23;;;;;;;0.43;83.12;92669.34;5010315;28;20191;-81
2022/01/11 09:05:33;;;;;;;12.03;11.13;;;;;;;0.33;85.19;92656.22;5009517;28;20238;-81
2022/01/11 09:08:18;;;;;;;10.03;9.53;;;;;;;0.54;84.94;92671.19;5009983;28;20188;-83
2022/01/11 09:10:43;;;;;;;10.27;9.67;;;;;;;0.77;83.59;92658.44;5024721;28;20230;-81
2022/01/11 09:13:08;;;;;;;12.93;11.90;;;;;;;0.67;83.41;92668.44;5010362;28;20187;-82
2022/01/11 09:15:34;;;;;;;10.17;9.30;;;;;;;0.38;84.19;92660.72;5009296;28;20255;-82
2022/01/11 09:18:00;;;;;;;10.90;10.20;;;;;;;0.43;83.47;92677.06;5009455;28;20226;-83
2022/01/11 09:20:26;;;;;;;12.40;11.60;;;;;;;0.28;83.53;92643.25;5008924;28;20214;-82
2022/01/11 09:22:53;;;;;;;12.03;11.30;;;;;;;0.60;84.13;92688.31;5009517;28;20200;-82
2022/01/11 09:25:18;;;;;;;11.07;10.43;;;;;;;0.07;84.18;92664.22;5008949;28;20226;-81
2022/01/11 09:27:44;;;;;;;11.53;10.73;;;;;;;-0.02;84.02;92673.22;5009502;28;20203;-82
2022/01/11 09:30:11;;;;;;;11.73;10.93;;;;;;;0.41;84.54;92689.31;5025313;28;20199;-82
2022/01/11 09:32:38;;;;;;;12.03;11.33;;;;;;;0.35;84.71;92689.38;5008522;28;20239;-82
2022/01/11 09:35:07;;;;;;;10.40;9.83;;;;;;;0.39;85.77;92672.56;5024153;28;20259;-82
2022/01/11 09:37:32;;;;;;;12.70;11.70;;;;;;;0.46;84.09;92692.03;5008920;28;20223;-82
2022/01/11 09:39:58;;;;;;;13.07;12.07;;;;;;;0.22;83.27;92669.78;5008602;28;20784;-80
2022/01/11 09:42:24;;;;;;;10.10;9.47;;;;;;;0.42;82.12;92690.88;5010105;28;20218;-83
2022/01/11 09:44:50;;;;;;;14.37;13.10;;;;;;;0.23;82.37;92691.09;5009252;28;20175;-84
2022/01/11 09:47:16;;;;;;;15.23;13.73;;;;;;;0.50;82.06;92693.16;5007817;28;20234;-80
2022/01/11 09:49:42;;;;;;;14.90;13.23;;;;;;;0.34;81.62;92682.69;5025196;28;20176;-82
2022/01/11 09:52:09;;;;;;;9.87;9.17;;;;;;;0.39;80.81;92688.72;5008947;28;20227;-82
2022/01/11 09:54:37;;;;;;;11.03;10.13;;;;;;;0.56;80.08;92706.94;5010095;28;20196;-81
2022/01/11 09:57:03;;;;;;;9.87;9.37;;;;;;;0.50;81.06;92716.25;5006585;28;20222;-84
2022/01/11 09:59:29;;;;;;;10.57;9.97;;;;;;;0.52;80.50;92696.28;5010264;28;20187;-83
2022/01/11 10:01:55;;;;;;;11.43;10.73;;;;;;;0.64;79.73;92701.50;5009546;28;20827;-80
2022/01/11 10:04:29;;;;;;;10.00;9.50;;;;;;;0.62;81.59;92719.69;5008786;28;20198;-81
2022/01/11 10:07:11;;;;;;;15.43;14.23;;;;;;;0.77;81.17;92693.59;5008544;28;20291;-83
2022/01/11 10:09:47;;;;;;;17.20;14.13;;;;;;;0.72;80.25;92707.09;5009584;28;20219;-82
2022/01/11 10:12:13;;;;;;;14.73;13.33;;;;;;;0.47;78.86;92700.53;5007518;28;20223;-82
2022/01/11 10:14:44;;;;;;;9.70;9.30;;;;;;;0.12;78.91;92713.13;5008505;28;20207;-83
2022/01/11 10:17:19;;;;;;;9.37;8.97;;;;;;;0.50;79.08;92713.69;5008939;28;20219;-81
2022/01/11 10:20:03;;;;;;;10.80;10.13;;;;;;;0.32;78.65;92716.28;5008461;28;20223;-82
2022/01/11 10:22:30;;;;;;;9.30;8.97;;;;;;;-0.29;79.24;92702.66;5008686;28;20231;-82
2022/01/11 10:24:57;;;;;;;9.10;8.70;;;;;;;0.36;78.41;92717.41;5009697;28;20213;-81
2022/01/11 10:27:29;;;;;;;16.00;14.40;;;;;;;0.51;78.35;92720.41;5007804;28;20235;-90
2022/01/11 10:29:59;;;;;;;12.43;11.53;;;;;;;0.43;77.48;92712.19;5009541;28;20194;-95
2022/01/11 10:32:35;;;;;;;10.93;10.20;;;;;;;0.55;79.16;92721.53;5008246;28;20223;-90
2022/01/11 10:35:19;;;;;;;11.10;10.40;;;;;;;0.23;79.38;92722.69;5009517;28;20210;-93
2022/01/11 10:37:48;;;;;;;10.80;10.30;;;;;;;-0.08;76.59;92692.03;5008904;28;20291;-89
2022/01/11 10:40:19;;;;;;;13.13;12.23;;;;;;;0.17;77.85;92720.19;5007548;28;20250;-85
2022/01/11 10:42:51;;;;;;;11.17;10.47;;;;;;;0.18;73.88;92722.56;5008291;28;20207;-92
2022/01/11 10:45:23;;;;;;;14.10;13.20;;;;;;;0.28;75.33;92722.81;5009161;28;20187;-92
2022/01/11 10:47:54;;;;;;;23.33;21.30;;;;;;;-0.28;75.85;92697.31;5007625;28;20199;-94
2022/01/11 10:50:44;;;;;;;16.33;15.33;;;;;;;0.16;76.25;92721.19;5009597;28;20218;-80
2022/01/11 10:53:27;;;;;;;14.70;13.70;;;;;;;0.14;77.63;92718.81;5008245;28;20250;-83
2022/01/11 10:56:01;;;;;;;12.83;11.73;;;;;;;0.38;77.73;92722.31;5009046;28;20242;-84
2022/01/11 10:58:32;;;;;;;21.03;17.70;;;;;;;0.49;76.44;92714.69;5009096;28;20187;-81
2022/01/11 11:00:57;;;;;;;21.97;20.07;;;;;;;0.60;77.91;92721.69;5009477;28;20230;-83
2022/01/11 11:03:28;;;;;;;19.13;17.30;;;;;;;0.71;76.38;92718.41;5008311;28;20191;-81
2022/01/11 11:06:10;;;;;;;15.97;14.80;;;;;;;0.24;77.35;92719.13;5008528;28;20319;-82
2022/01/11 11:08:44;;;;;;;11.00;10.07;;;;;;;-0.52;79.24;92676.84;5009124;28;20195;-80
2022/01/11 11:11:17;;;;;;;10.60;10.07;;;;;;;-0.29;80.16;92712.94;5021227;28;20214;-81
2022/01/11 11:13:45;;;;;;;10.10;9.60;;;;;;;-0.30;78.30;92709.59;5017061;28;20263;-81
2022/01/11 11:16:14;;;;;;;10.27;9.77;;;;;;;-0.22;77.76;92711.09;5010232;28;20262;-82
2022/01/11 11:18:43;;;;;;;9.17;8.77;;;;;;;-0.40;78.30;92711.03;5012036;28;20719;-82
2022/01/11 11:21:17;;;;;;;10.60;10.00;;;;;;;-0.16;78.82;92708.44;5009504;28;20232;-82
2022/01/11 11:23:43;;;;;;;10.50;9.90;;;;;;;-0.07;79.17;92711.53;5012039;28;20172;-79
2022/01/11 11:26:09;;;;;;;9.50;9.10;;;;;;;-0.13;77.01;92705.50;5010688;28;20230;-81
2022/01/11 11:28:35;;;;;;;10.23;9.73;;;;;;;-0.46;77.07;92717.00;5013730;28;20247;-82
2022/01/11 11:31:02;;;;;;;11.10;10.40;;;;;;;0.22;76.13;92731.38;5012017;28;20282;-82
2022/01/11 11:33:28;;;;;;;10.80;10.10;;;;;;;0.15;77.77;92732.44;5012601;28;20218;-82